Time;durP1;ratioP1;P1;durP2;ratioP2;P2;SDS_P1;SDS_P2;PMS_P1;PMS_P2;Temp;Humidity;BMP_temperature;BMP_pressure;BME280_temperature;BME280_humidity;BME280_pressure;Samples;Min_cycle;Max_cycle;Signal;HPM_P1;HPM_P2
2022/05/04 00:00:29;;;;;;;9.33;6.30;;;;;;;;;;5053787;28;20416;-62
2022/05/04 00:02:55;;;;;;;7.10;6.50;;;;;;;;;;5053784;28;20406;-61
2022/05/04 00:05:21;;;;;;;7.00;6.30;;;;;;;;;;5053709;28;20912;-62
2022/05/04 00:07:48;;;;;;;8.33;6.93;;;;;;;;;;5053430;28;20452;-62
2022/05/04 00:10:14;;;;;;;12.53;7.07;;;;;;;;;;5053553;28;20484;-62
2022/05/04 00:12:40;;;;;;;6.87;6.17;;;;;;;;;;5053702;28;20406;-62
2022/05/04 00:15:07;;;;;;;8.10;6.23;;;;;;;;;;5053395;28;20416;-62
2022/05/04 00:17:33;;;;;;;7.67;6.87;;;;;;;;;;5053470;28;20520;-63
2022/05/04 00:19:59;;;;;;;7.90;6.93;;;;;;;;;;5053548;28;20798;-62
2022/05/04 00:22:26;;;;;;;7.87;6.80;;;;;;;;;;5053554;28;20467;-62
2022/05/04 00:24:52;;;;;;;8.43;6.40;;;;;;;;;;5035631;28;20930;-62
2022/05/04 00:27:19;;;;;;;7.20;6.00;;;;;;;;;;5053217;28;20406;-62
2022/05/04 00:29:46;;;;;;;7.57;6.77;;;;;;;;;;5035305;28;20542;-62
2022/05/04 00:32:12;;;;;;;9.60;6.60;;;;;;;;;;5053426;28;20421;-61
2022/05/04 00:34:39;;;;;;;7.87;7.10;;;;;;;;;;5053141;28;20479;-61
2022/05/04 00:37:05;;;;;;;7.73;6.93;;;;;;;;;;5053103;28;20920;-63
2022/05/04 00:39:31;;;;;;;9.20;6.83;;;;;;;;;;5053189;28;20410;-62
2022/05/04 00:42:10;;;;;;;11.00;8.00;;;;;;;;;;5053325;28;20880;-62
2022/05/04 00:44:37;;;;;;;9.00;6.63;;;;;;;;;;5053192;28;20445;-62
2022/05/04 00:47:03;;;;;;;8.07;7.30;;;;;;;;;;5053084;28;20425;-62
2022/05/04 00:49:30;;;;;;;7.93;7.13;;;;;;;;;;5053067;28;20482;-67
2022/05/04 00:51:56;;;;;;;9.03;7.47;;;;;;;;;;5053201;28;20430;-63
2022/05/04 00:54:22;;;;;;;7.53;6.80;;;;;;;;;;5053076;28;20440;-66
2022/05/04 00:56:48;;;;;;;8.83;6.57;;;;;;;;;;5053088;28;20410;-63
2022/05/04 00:59:14;;;;;;;9.13;6.70;;;;;;;;;;5053059;28;20507;-62
2022/05/04 01:01:40;;;;;;;7.90;7.17;;;;;;;;;;5052982;28;20449;-62
2022/05/04 01:04:06;;;;;;;6.70;6.03;;;;;;;;;;5052891;28;20457;-63
2022/05/04 01:06:33;;;;;;;10.20;7.60;;;;;;;;;;5052606;28;20492;-62
2022/05/04 01:09:00;;;;;;;8.00;7.20;;;;;;;;;;5053005;28;20400;-63
2022/05/04 01:11:26;;;;;;;7.83;6.97;;;;;;;;;;5052842;28;20504;-63
2022/05/04 01:13:59;;;;;;;10.47;6.53;;;;;;;;;;5052904;28;20398;-62
2022/05/04 01:16:25;;;;;;;7.57;6.77;;;;;;;;;;5052862;28;20420;-62
2022/05/04 01:18:51;;;;;;;8.83;6.90;;;;;;;;;;5052605;28;20787;-62
2022/05/04 01:21:17;;;;;;;7.50;6.70;;;;;;;;;;5052780;28;20418;-63
2022/05/04 01:23:43;;;;;;;7.40;6.40;;;;;;;;;;5052839;28;20477;-63
2022/05/04 01:26:09;;;;;;;9.03;7.00;;;;;;;;;;5053253;28;20405;-63
2022/05/04 01:28:35;;;;;;;7.20;6.50;;;;;;;;;;5056507;28;20479;-63
2022/05/04 01:31:01;;;;;;;7.63;6.40;;;;;;;;;;5056584;28;20542;-62
2022/05/04 01:33:27;;;;;;;8.13;7.30;;;;;;;;;;5038714;28;20437;-63
2022/05/04 01:35:53;;;;;;;8.07;7.27;;;;;;;;;;5056575;28;20860;-62
2022/05/04 01:38:19;;;;;;;8.17;7.33;;;;;;;;;;5056488;28;20416;-65
2022/05/04 01:40:45;;;;;;;7.80;7.10;;;;;;;;;;5056549;28;20417;-63
2022/05/04 01:43:11;;;;;;;9.07;8.17;;;;;;;;;;5056349;28;20413;-63
2022/05/04 01:45:37;;;;;;;9.33;7.97;;;;;;;;;;5056348;28;20436;-62
2022/05/04 01:48:03;;;;;;;9.23;7.03;;;;;;;;;;5056118;28;20979;-65
2022/05/04 01:50:29;;;;;;;7.73;6.93;;;;;;;;;;5056260;28;20471;-63
2022/05/04 01:52:55;;;;;;;9.00;7.90;;;;;;;;;;5056261;28;20413;-63
2022/05/04 01:55:22;;;;;;;9.40;7.30;;;;;;;;;;5056245;28;20416;-62
2022/05/04 01:57:48;;;;;;;7.33;6.63;;;;;;;;;;5056145;28;20761;-64
2022/05/04 02:00:14;;;;;;;8.07;7.37;;;;;;;;;;5056135;28;20410;-61
2022/05/04 02:02:40;;;;;;;9.10;7.00;;;;;;;;;;5037910;28;20916;-62
2022/05/04 02:05:06;;;;;;;11.83;7.40;;;;;;;;;;5055945;28;20426;-62
2022/05/04 02:07:36;;;;;;;8.00;7.20;;;;;;;;;;5055718;28;20465;-63
2022/05/04 02:10:03;;;;;;;13.03;7.80;;;;;;;;;;5055904;28;20480;-62
2022/05/04 02:12:29;;;;;;;8.10;7.30;;;;;;;;;;5055920;28;20410;-62
2022/05/04 02:14:55;;;;;;;8.97;7.00;;;;;;;;;;5055802;28;20421;-62
2022/05/04 02:17:21;;;;;;;8.33;7.30;;;;;;;;;;5055705;28;20416;-62
2022/05/04 02:19:47;;;;;;;8.63;7.27;;;;;;;;;;5055800;28;20757;-62
2022/05/04 02:22:13;;;;;;;8.93;8.03;;;;;;;;;;5037875;28;20420;-62
2022/05/04 02:24:39;;;;;;;8.13;7.40;;;;;;;;;;5055128;28;20422;-62
2022/05/04 02:27:05;;;;;;;11.00;7.90;;;;;;;;;;5055589;28;20475;-61
2022/05/04 02:29:31;;;;;;;7.63;6.80;;;;;;;;;;5055447;28;20436;-62
2022/05/04 02:31:58;;;;;;;9.87;7.33;;;;;;;;;;5055535;28;20900;-62
2022/05/04 02:34:25;;;;;;;10.23;7.23;;;;;;;;;;5055373;28;20489;-63
2022/05/04 02:39:35;;;;;;;9.67;8.37;;;;;;;;;;5055726;28;20900;-63
2022/05/04 02:42:02;;;;;;;9.40;6.90;;;;;;;;;;5055248;28;20783;-63
2022/05/04 02:44:28;;;;;;;8.50;7.60;;;;;;;;;;5055244;28;20389;-62
2022/05/04 02:46:54;;;;;;;8.77;7.83;;;;;;;;;;5037459;28;20467;-62
2022/05/04 02:49:20;;;;;;;8.20;7.40;;;;;;;;;;5055282;28;20413;-62
2022/05/04 02:51:46;;;;;;;7.10;6.40;;;;;;;;;;5055148;28;20473;-62
2022/05/04 02:54:12;;;;;;;8.90;7.10;;;;;;;;;;5055083;28;20401;-63
2022/05/04 02:56:38;;;;;;;7.50;6.70;;;;;;;;;;5055119;28;20492;-62
2022/05/04 02:59:04;;;;;;;10.17;7.87;;;;;;;;;;5055014;28;20397;-63
2022/05/04 03:04:14;;;;;;;7.90;7.10;;;;;;;;;;5055147;28;20425;-63
2022/05/04 03:06:41;;;;;;;7.50;6.80;;;;;;;;;;5054542;28;20461;-63
2022/05/04 03:09:08;;;;;;;9.03;8.13;;;;;;;;;;5054758;28;20772;-63
2022/05/04 03:14:20;;;;;;;8.60;7.30;;;;;;;;;;5055143;28;20417;-63
2022/05/04 03:16:46;;;;;;;9.03;6.97;;;;;;;;;;5054681;28;20409;-64
2022/05/04 03:19:12;;;;;;;8.30;7.50;;;;;;;;;;5054629;28;20472;-63
2022/05/04 03:21:38;;;;;;;9.00;7.80;;;;;;;;;;5054637;28;20544;-63
2022/05/04 03:24:04;;;;;;;9.10;8.20;;;;;;;;;;5054677;28;20420;-63
2022/05/04 03:26:30;;;;;;;10.47;8.40;;;;;;;;;;5054435;28;20475;-63
2022/05/04 03:28:56;;;;;;;9.00;8.10;;;;;;;;;;5054300;28;20402;-64
2022/05/04 03:31:23;;;;;;;10.00;8.50;;;;;;;;;;5054412;28;20870;-63
2022/05/04 03:33:48;;;;;;;10.50;8.80;;;;;;;;;;5054319;28;20455;-63
2022/05/04 03:36:14;;;;;;;9.53;8.00;;;;;;;;;;5054361;28;20971;-63
2022/05/04 03:38:41;;;;;;;9.40;8.20;;;;;;;;;;5054257;28;20410;-64
2022/05/04 03:41:07;;;;;;;9.53;8.43;;;;;;;;;;5054246;28;20979;-64
2022/05/04 03:43:33;;;;;;;9.30;8.30;;;;;;;;;;5054291;28;20529;-64
2022/05/04 03:46:18;;;;;;;10.87;8.60;;;;;;;;;;5054035;28;20429;-63
2022/05/04 03:48:44;;;;;;;9.50;8.53;;;;;;;;;;5053700;28;20417;-62
2022/05/04 03:51:11;;;;;;;11.80;9.20;;;;;;;;;;5053719;28;20900;-63
2022/05/04 03:53:37;;;;;;;11.13;8.50;;;;;;;;;;5054113;28;20492;-62
2022/05/04 03:56:03;;;;;;;10.63;8.20;;;;;;;;;;5053989;28;20496;-62
2022/05/04 03:58:30;;;;;;;10.63;8.50;;;;;;;;;;5053797;28;20954;-63
2022/05/04 04:00:56;;;;;;;8.80;7.70;;;;;;;;;;5053782;28;20413;-64
2022/05/04 04:03:22;;;;;;;11.20;8.03;;;;;;;;;;5053719;28;20417;-64
2022/05/04 04:05:47;;;;;;;8.80;8.00;;;;;;;;;;5053403;28;20465;-66
2022/05/04 04:08:13;;;;;;;10.10;9.00;;;;;;;;;;5053748;28;20410;-64
2022/05/04 04:10:39;;;;;;;10.70;8.80;;;;;;;;;;5035722;28;20476;-63
2022/05/04 04:13:08;;;;;;;9.67;7.53;;;;;;;;;;5053680;28;20500;-62
2022/05/04 04:15:34;;;;;;;11.47;7.83;;;;;;;;;;5053557;28;20915;-62
2022/05/04 04:18:00;;;;;;;9.33;7.90;;;;;;;;;;5053494;28;20420;-62
2022/05/04 04:23:11;;;;;;;8.57;7.73;;;;;;;;;;5053837;28;20739;-62
2022/05/04 04:25:38;;;;;;;9.50;7.73;;;;;;;;;;5053348;28;20405;-63
2022/05/04 04:28:04;;;;;;;10.40;8.03;;;;;;;;;;5053357;28;20405;-63
2022/05/04 04:30:30;;;;;;;10.40;8.10;;;;;;;;;;5053372;28;20556;-62
2022/05/04 04:32:56;;;;;;;8.60;7.43;;;;;;;;;;5053210;28;20426;-63
2022/05/04 04:35:22;;;;;;;9.30;7.23;;;;;;;;;;5053429;28;20459;-63
2022/05/04 04:37:48;;;;;;;10.73;8.23;;;;;;;;;;5053253;28;20956;-63
2022/05/04 04:40:14;;;;;;;10.53;8.53;;;;;;;;;;5053298;28;20508;-62
2022/05/04 04:42:40;;;;;;;10.50;8.23;;;;;;;;;;5053252;28;20962;-62
2022/05/04 04:45:06;;;;;;;11.37;8.30;;;;;;;;;;5053104;28;20440;-61
2022/05/04 04:47:32;;;;;;;10.40;9.00;;;;;;;;;;5053014;28;20428;-62
2022/05/04 04:49:59;;;;;;;10.30;9.20;;;;;;;;;;5053007;28;20449;-63
2022/05/04 04:52:25;;;;;;;11.53;8.37;;;;;;;;;;5053019;28;20485;-62
2022/05/04 04:54:51;;;;;;;9.30;7.80;;;;;;;;;;5053096;28;20438;-63
2022/05/04 04:57:17;;;;;;;10.30;8.03;;;;;;;;;;5052979;28;20483;-63
2022/05/04 04:59:43;;;;;;;10.57;9.47;;;;;;;;;;5053011;28;20497;-62
2022/05/04 05:02:09;;;;;;;9.07;8.17;;;;;;;;;;5055213;28;20432;-65
2022/05/04 05:04:35;;;;;;;12.33;8.50;;;;;;;;;;5056989;28;20417;-62
2022/05/04 05:07:02;;;;;;;9.73;8.73;;;;;;;;;;5062095;28;20464;-63
2022/05/04 05:09:28;;;;;;;10.73;8.50;;;;;;;;;;5077091;28;20496;-63
2022/05/04 05:11:54;;;;;;;11.23;9.40;;;;;;;;;;5077002;28;20971;-63
2022/05/04 05:17:05;;;;;;;11.70;8.30;;;;;;;;;;5077039;28;20746;-63
2022/05/04 05:19:31;;;;;;;12.03;8.63;;;;;;;;;;5075724;28;20416;-63
2022/05/04 05:21:57;;;;;;;8.97;8.13;;;;;;;;;;5076755;28;20562;-62
2022/05/04 05:24:23;;;;;;;10.33;8.90;;;;;;;;;;5076842;28;20417;-63
2022/05/04 05:26:49;;;;;;;12.70;8.60;;;;;;;;;;5076535;28;20981;-62
2022/05/04 05:29:15;;;;;;;10.23;8.27;;;;;;;;;;5076721;28;20501;-62
2022/05/04 05:31:41;;;;;;;10.23;8.73;;;;;;;;;;5076640;28;20943;-63
2022/05/04 05:34:07;;;;;;;9.60;8.70;;;;;;;;;;5076547;28;20417;-64
2022/05/04 05:36:33;;;;;;;10.20;9.10;;;;;;;;;;5076499;28;20887;-63
2022/05/04 05:38:59;;;;;;;10.90;8.40;;;;;;;;;;5076428;28;20439;-63
2022/05/04 05:41:25;;;;;;;9.97;8.10;;;;;;;;;;5076495;28;20409;-64
2022/05/04 05:43:52;;;;;;;10.50;8.57;;;;;;;;;;5076362;28;20408;-63
2022/05/04 05:46:18;;;;;;;9.43;7.73;;;;;;;;;;5076311;28;20442;-63
2022/05/04 05:48:47;;;;;;;10.93;8.90;;;;;;;;;;5076191;28;20792;-63
2022/05/04 05:51:13;;;;;;;9.33;7.80;;;;;;;;;;5076247;28;20464;-62
2022/05/04 05:53:39;;;;;;;10.33;8.03;;;;;;;;;;5076276;28;20408;-63
2022/05/04 05:56:06;;;;;;;11.80;8.53;;;;;;;;;;5076130;28;20900;-63
2022/05/04 05:58:32;;;;;;;10.10;7.33;;;;;;;;;;5076242;28;20427;-62
2022/05/04 06:00:58;;;;;;;10.60;8.73;;;;;;;;;;5076266;28;20421;-63
2022/05/04 06:03:24;;;;;;;8.73;7.90;;;;;;;;;;5075978;28;20517;-63
2022/05/04 06:05:50;;;;;;;10.70;8.47;;;;;;;;;;5072333;28;20500;-63
2022/05/04 06:08:16;;;;;;;10.00;7.60;;;;;;;;;;5056006;28;20503;-63
2022/05/04 06:10:42;;;;;;;7.93;7.23;;;;;;;;;;5055933;28;20523;-63
2022/05/04 06:13:08;;;;;;;13.30;8.57;;;;;;;;;;5055460;28;20804;-63
2022/05/04 06:15:34;;;;;;;12.13;8.07;;;;;;;;;;5055828;28;20423;-64
2022/05/04 06:18:01;;;;;;;17.33;8.10;;;;;;;;;;5055639;28;20767;-63
2022/05/04 06:20:27;;;;;;;21.30;8.50;;;;;;;;;;5055832;28;20405;-62
2022/05/04 06:22:53;;;;;;;15.87;8.53;;;;;;;;;;5055635;28;20425;-62
2022/05/04 06:25:19;;;;;;;18.13;9.00;;;;;;;;;;5055409;28;20409;-63
2022/05/04 06:27:45;;;;;;;10.77;7.03;;;;;;;;;;5055386;28;20437;-63
2022/05/04 06:35:41;;;;;;;9.13;6.20;;;;;;;;;;5055698;28;20400;-63
2022/05/04 06:38:07;;;;;;;8.70;7.07;;;;;;;;;;5055207;28;20444;-64
2022/05/04 06:40:33;;;;;;;7.80;6.73;;;;;;;;;;5055367;28;20429;-64
2022/05/04 06:42:59;;;;;;;7.63;6.43;;;;;;;;;;5055351;28;20445;-62
2022/05/04 06:45:25;;;;;;;7.20;6.13;;;;;;;;;;5055183;28;20459;-63
2022/05/04 06:47:51;;;;;;;6.77;6.07;;;;;;;;;;5055115;28;20497;-70
2022/05/04 06:50:18;;;;;;;7.60;6.80;;;;;;;;;;5054983;28;20536;-63
2022/05/04 06:52:44;;;;;;;7.67;6.87;;;;;;;;;;5055236;28;20428;-63
2022/05/04 06:55:10;;;;;;;7.03;6.23;;;;;;;;;;5054984;28;20401;-62
2022/05/04 06:57:36;;;;;;;7.50;6.40;;;;;;;;;;5054932;28;20414;-62
2022/05/04 07:00:04;;;;;;;7.90;6.00;;;;;;;;;;5054965;28;20884;-62
2022/05/04 07:02:31;;;;;;;11.20;6.43;;;;;;;;;;5054837;28;20401;-64
2022/05/04 07:04:57;;;;;;;8.10;6.47;;;;;;;;;;5054724;28;20441;-63
2022/05/04 07:07:23;;;;;;;6.07;5.43;;;;;;;;;;5054626;28;20496;-64
2022/05/04 07:09:49;;;;;;;7.10;6.13;;;;;;;;;;5054699;28;20447;-65
2022/05/04 07:12:15;;;;;;;6.83;5.70;;;;;;;;;;5054837;28;20440;-63
2022/05/04 07:14:40;;;;;;;7.07;6.37;;;;;;;;;;5054469;28;20412;-64
2022/05/04 07:17:06;;;;;;;7.00;5.60;;;;;;;;;;5054611;28;20418;-64
2022/05/04 07:19:32;;;;;;;6.90;5.70;;;;;;;;;;5054668;28;20908;-63
2022/05/04 07:21:58;;;;;;;6.40;5.70;;;;;;;;;;5054597;28;20497;-64
2022/05/04 07:24:25;;;;;;;6.27;5.67;;;;;;;;;;5053674;28;20552;-63
2022/05/04 07:26:51;;;;;;;9.57;6.13;;;;;;;;;;5054216;28;20413;-63
2022/05/04 07:29:17;;;;;;;7.13;6.23;;;;;;;;;;5054421;28;20413;-62
2022/05/04 07:31:43;;;;;;;6.47;5.83;;;;;;;;;;5054266;28;20574;-63
2022/05/04 07:34:09;;;;;;;7.40;6.70;;;;;;;;;;5054138;28;20442;-63
2022/05/04 07:36:35;;;;;;;7.40;6.13;;;;;;;;;;5054265;28;20409;-63
2022/05/04 07:39:01;;;;;;;7.43;6.23;;;;;;;;;;5054214;28;20417;-65
2022/05/04 07:44:12;;;;;;;7.70;5.73;;;;;;;;;;5054081;28;20890;-64
2022/05/04 07:46:38;;;;;;;6.13;5.00;;;;;;;;;;5053937;28;20943;-63
2022/05/04 07:49:05;;;;;;;6.33;5.63;;;;;;;;;;5053841;28;20441;-63
2022/05/04 07:51:31;;;;;;;5.87;5.23;;;;;;;;;;5053936;28;20920;-64
2022/05/04 07:53:57;;;;;;;6.33;4.93;;;;;;;;;;5053701;28;20919;-63
2022/05/04 07:56:23;;;;;;;6.60;5.30;;;;;;;;;;5053738;28;20445;-63
2022/05/04 07:58:49;;;;;;;5.93;4.83;;;;;;;;;;5053848;28;20437;-62
2022/05/04 08:04:18;;;;;;;6.20;5.43;;;;;;;;;;5053993;28;20471;-62
2022/05/04 08:06:47;;;;;;;5.50;4.70;;;;;;;;;;5053354;28;20481;-64
2022/05/04 08:09:13;;;;;;;7.13;5.13;;;;;;;;;;5053686;28;20417;-63
2022/05/04 08:11:40;;;;;;;11.70;5.43;;;;;;;;;;5053488;28;20472;-64
2022/05/04 08:14:08;;;;;;;6.43;4.47;;;;;;;;;;5053351;28;20495;-63
2022/05/04 08:16:34;;;;;;;5.33;4.60;;;;;;;;;;5053504;28;20470;-63
2022/05/04 08:19:00;;;;;;;4.73;4.33;;;;;;;;;;5053435;28;20406;-63
2022/05/04 08:21:27;;;;;;;4.90;4.40;;;;;;;;;;5053353;28;20754;-64
2022/05/04 08:23:53;;;;;;;6.57;4.73;;;;;;;;;;5053376;28;20398;-62
2022/05/04 08:26:19;;;;;;;5.10;4.60;;;;;;;;;;5053167;28;20456;-62
2022/05/04 08:28:46;;;;;;;10.17;5.10;;;;;;;;;;5053313;28;20432;-65
2022/05/04 08:31:12;;;;;;;4.97;4.47;;;;;;;;;;5035362;28;20480;-64
2022/05/04 08:33:38;;;;;;;9.13;4.97;;;;;;;;;;5053242;28;20524;-63
2022/05/04 08:36:04;;;;;;;4.90;4.27;;;;;;;;;;5053054;28;20448;-65
2022/05/04 08:38:30;;;;;;;4.87;4.20;;;;;;;;;;5035416;28;20402;-65
2022/05/04 08:40:57;;;;;;;5.43;4.20;;;;;;;;;;5053127;28;20812;-63
2022/05/04 08:43:26;;;;;;;6.13;4.57;;;;;;;;;;5052999;28;20409;-63
2022/05/04 08:45:52;;;;;;;4.83;4.00;;;;;;;;;;5052748;28;20440;-63
2022/05/04 08:48:20;;;;;;;7.00;4.27;;;;;;;;;;5052924;28;20414;-65
2022/05/04 08:50:46;;;;;;;5.13;4.63;;;;;;;;;;5052965;28;20474;-63
2022/05/04 08:53:13;;;;;;;5.37;4.43;;;;;;;;;;5052997;28;20584;-63
2022/05/04 08:55:39;;;;;;;5.00;4.50;;;;;;;;;;5052971;28;20424;-64
2022/05/04 08:58:06;;;;;;;7.30;4.93;;;;;;;;;;5053003;28;20456;-63
2022/05/04 09:00:32;;;;;;;5.33;4.83;;;;;;;;;;5052973;28;20881;-63
2022/05/04 09:02:58;;;;;;;7.87;6.70;;;;;;;;;;5052833;28;20425;-64
2022/05/04 09:05:25;;;;;;;7.10;6.40;;;;;;;;;;5052704;28;20791;-66
2022/05/04 09:07:53;;;;;;;6.70;6.10;;;;;;;;;;5052677;28;20511;-64
2022/05/04 09:10:19;;;;;;;9.43;6.97;;;;;;;;;;5034873;28;20489;-64
2022/05/04 09:12:46;;;;;;;7.17;6.47;;;;;;;;;;5052782;28;20445;-63
2022/05/04 09:15:22;;;;;;;9.87;6.37;;;;;;;;;;5052811;28;20413;-65
2022/05/04 09:17:55;;;;;;;6.80;6.20;;;;;;;;;;5052804;28;20892;-66
2022/05/04 09:23:09;;;;;;;10.73;6.90;;;;;;;;;;5053133;28;20419;-64
2022/05/04 09:25:36;;;;;;;7.07;5.80;;;;;;;;;;5052605;28;20409;-63
2022/05/04 09:28:02;;;;;;;6.90;5.80;;;;;;;;;;5052609;28;20400;-63
2022/05/04 09:30:28;;;;;;;13.20;6.37;;;;;;;;;;5052626;28;20879;-63
2022/05/04 09:32:55;;;;;;;8.13;6.40;;;;;;;;;;5052416;28;20970;-64
2022/05/04 09:35:21;;;;;;;10.13;8.60;;;;;;;;;;5052737;28;20409;-67
2022/05/04 09:46:05;;;;;;;10.20;8.80;;;;;;;;;;5052724;28;20455;-65
2022/05/04 09:48:35;;;;;;;10.23;8.73;;;;;;;;;;5054971;28;20818;-66
2022/05/04 09:51:08;;;;;;;9.90;8.37;;;;;;;;;;5056188;28;20464;-64
2022/05/04 09:53:36;;;;;;;10.70;9.60;;;;;;;;;;5056426;28;20495;-64
2022/05/04 09:56:02;;;;;;;11.70;10.50;;;;;;;;;;5056111;28;20820;-64
2022/05/04 09:58:29;;;;;;;12.70;9.93;;;;;;;;;;5056168;28;20440;-70
2022/05/04 10:00:55;;;;;;;12.03;10.03;;;;;;;;;;5056104;28;20426;-63
2022/05/04 10:03:22;;;;;;;14.50;10.80;;;;;;;;;;5055983;28;20944;-64
2022/05/04 10:05:49;;;;;;;13.30;10.47;;;;;;;;;;5055743;28;20445;-68
2022/05/04 10:08:15;;;;;;;12.50;10.70;;;;;;;;;;5055992;28;20448;-66
2022/05/04 10:10:42;;;;;;;13.23;10.17;;;;;;;;;;5055797;28;20967;-71
2022/05/04 10:13:09;;;;;;;12.80;11.00;;;;;;;;;;5055916;28;20424;-67
2022/05/04 10:15:36;;;;;;;11.93;10.73;;;;;;;;;;5055777;28;20417;-64
2022/05/04 10:18:05;;;;;;;15.00;10.97;;;;;;;;;;5055774;28;20483;-66
2022/05/04 10:20:35;;;;;;;11.73;10.33;;;;;;;;;;5055745;28;20410;-63
2022/05/04 10:23:36;;;;;;;13.03;10.20;;;;;;;;;;5055701;28;20401;-67
2022/05/04 10:26:04;;;;;;;11.00;9.10;;;;;;;;;;4974661;28;20409;-64
2022/05/04 10:28:36;;;;;;;12.80;10.50;;;;;;;;;;5039912;28;20440;-66
2022/05/04 10:31:07;;;;;;;10.67;9.53;;;;;;;;;;5055498;28;20479;-65
2022/05/04 10:33:36;;;;;;;12.97;9.80;;;;;;;;;;5055374;28;20436;-64
2022/05/04 10:36:15;;;;;;;12.33;9.67;;;;;;;;;;5055418;28;20417;-67
2022/05/04 10:38:45;;;;;;;11.20;9.07;;;;;;;;;;5055228;28;20413;-65
2022/05/04 10:41:12;;;;;;;11.70;8.67;;;;;;;;;;5055287;28;20418;-64
2022/05/04 10:43:38;;;;;;;13.47;10.70;;;;;;;;;;5055173;28;20481;-65
2022/05/04 10:46:09;;;;;;;10.00;8.80;;;;;;;;;;5055052;28;20495;-64
2022/05/04 10:48:35;;;;;;;11.17;9.40;;;;;;;;;;5055156;28;20832;-64
2022/05/04 10:51:12;;;;;;;12.67;9.77;;;;;;;;;;5054865;28;20473;-64
2022/05/04 10:53:39;;;;;;;9.43;8.40;;;;;;;;;;5055021;28;20479;-65
2022/05/04 10:56:12;;;;;;;8.80;7.90;;;;;;;;;;5054846;28;20742;-63
2022/05/04 10:58:40;;;;;;;8.20;7.40;;;;;;;;;;5036175;28;20414;-63
2022/05/04 11:01:18;;;;;;;11.90;9.80;;;;;;;;;;5054524;28;20390;-63
2022/05/04 11:03:56;;;;;;;10.60;8.63;;;;;;;;;;5054648;28;20505;-63
2022/05/04 11:06:23;;;;;;;10.80;7.90;;;;;;;;;;5054319;28;20451;-64
2022/05/04 11:08:50;;;;;;;8.53;7.20;;;;;;;;;;5054647;28;20413;-64
2022/05/04 11:11:16;;;;;;;14.57;8.97;;;;;;;;;;5054594;28;20464;-62
2022/05/04 11:13:45;;;;;;;12.37;8.30;;;;;;;;;;5054692;28;20401;-63
2022/05/04 11:16:11;;;;;;;10.33;7.60;;;;;;;;;;5054577;28;20512;-64
2022/05/04 11:18:38;;;;;;;10.33;7.77;;;;;;;;;;5054620;28;20402;-64
2022/05/04 11:21:07;;;;;;;7.97;6.80;;;;;;;;;;5036973;28;20418;-67
2022/05/04 11:23:33;;;;;;;7.80;6.30;;;;;;;;;;5054301;28;20459;-68
2022/05/04 11:25:59;;;;;;;7.80;7.00;;;;;;;;;;5054169;28;20398;-64
2022/05/04 11:28:25;;;;;;;11.40;6.77;;;;;;;;;;5054145;28;20416;-65
2022/05/04 11:30:52;;;;;;;13.90;7.37;;;;;;;;;;5036254;28;21034;-65
2022/05/04 11:33:18;;;;;;;6.80;6.10;;;;;;;;;;5054152;28;20434;-65
2022/05/04 11:35:45;;;;;;;8.27;6.23;;;;;;;;;;5054201;28;20404;-65
2022/05/04 11:38:21;;;;;;;7.67;6.60;;;;;;;;;;5036329;28;20413;-66
2022/05/04 11:40:47;;;;;;;7.60;5.90;;;;;;;;;;5054021;28;20417;-65
2022/05/04 11:43:22;;;;;;;7.13;5.53;;;;;;;;;;5054029;28;20480;-63
2022/05/04 11:45:49;;;;;;;9.00;6.20;;;;;;;;;;5053922;28;20401;-65
2022/05/04 11:48:18;;;;;;;7.90;6.60;;;;;;;;;;5053438;28;20405;-64
2022/05/04 11:50:44;;;;;;;6.50;5.87;;;;;;;;;;5053676;28;20477;-65
2022/05/04 11:53:11;;;;;;;7.10;6.40;;;;;;;;;;5053749;28;20452;-64
2022/05/04 11:55:37;;;;;;;8.40;6.07;;;;;;;;;;5053917;28;20493;-62
2022/05/04 11:58:07;;;;;;;7.27;6.57;;;;;;;;;;5053772;28;20504;-70
2022/05/04 12:00:33;;;;;;;5.70;5.20;;;;;;;;;;5053696;28;20401;-65
2022/05/04 12:02:59;;;;;;;8.17;5.07;;;;;;;;;;5053590;28;20425;-64
2022/05/04 12:05:25;;;;;;;7.57;5.23;;;;;;;;;;5053559;28;20448;-66
2022/05/04 12:07:51;;;;;;;5.47;4.97;;;;;;;;;;5071798;28;20467;-65
2022/05/04 12:10:18;;;;;;;6.60;5.03;;;;;;;;;;5073010;28;20467;-64
2022/05/04 12:12:44;;;;;;;5.80;5.20;;;;;;;;;;5073522;28;20415;-64
2022/05/04 12:15:10;;;;;;;5.53;4.87;;;;;;;;;;5073472;28;20401;-64
2022/05/04 12:17:36;;;;;;;9.43;5.53;;;;;;;;;;5073371;28;20466;-67
2022/05/04 12:20:05;;;;;;;4.97;4.47;;;;;;;;;;5073416;28;20409;-65
2022/05/04 12:22:31;;;;;;;5.30;4.80;;;;;;;;;;5072049;28;20416;-63
2022/05/04 12:24:57;;;;;;;5.80;5.10;;;;;;;;;;5073359;28;20416;-64
2022/05/04 12:27:24;;;;;;;5.03;4.63;;;;;;;;;;5073301;28;20412;-66
2022/05/04 12:35:21;;;;;;;6.87;6.20;;;;;;;;;;5073316;28;20392;-65
2022/05/04 12:37:53;;;;;;;6.60;5.87;;;;;;;;;;5073099;28;20404;-64
2022/05/04 12:40:19;;;;;;;6.23;5.60;;;;;;;;;;5073082;28;20437;-63
2022/05/04 12:42:45;;;;;;;4.90;4.50;;;;;;;;;;5071913;28;20459;-62
2022/05/04 12:45:16;;;;;;;5.00;4.30;;;;;;;;;;5073019;28;20931;-67
2022/05/04 12:47:42;;;;;;;5.17;4.77;;;;;;;;;;5071881;28;20458;-64
2022/05/04 12:50:09;;;;;;;5.03;4.60;;;;;;;;;;5072929;28;20454;-68
2022/05/04 12:52:38;;;;;;;5.53;4.93;;;;;;;;;;5073030;28;20404;-66
2022/05/04 12:55:07;;;;;;;5.10;4.43;;;;;;;;;;5071673;28;20413;-63
2022/05/04 12:57:33;;;;;;;4.70;4.30;;;;;;;;;;5072824;28;20416;-72
2022/05/04 12:59:59;;;;;;;6.80;4.80;;;;;;;;;;5072731;28;20403;-63
2022/05/04 13:02:25;;;;;;;6.90;5.00;;;;;;;;;;5072609;28;20405;-64
2022/05/04 13:04:51;;;;;;;5.57;5.17;;;;;;;;;;5072628;28;20409;-62
2022/05/04 13:07:17;;;;;;;8.00;4.73;;;;;;;;;;5057439;28;20472;-67
2022/05/04 13:09:43;;;;;;;6.23;5.63;;;;;;;;;;5052986;28;20413;-63
2022/05/04 13:12:11;;;;;;;5.90;5.03;;;;;;;;;;5052695;28;20959;-63
2022/05/04 13:14:38;;;;;;;5.50;5.00;;;;;;;;;;5052742;28;20772;-64
2022/05/04 13:17:04;;;;;;;5.80;5.23;;;;;;;;;;5052681;28;20421;-69
2022/05/04 13:19:30;;;;;;;7.27;5.87;;;;;;;;;;5034714;28;20410;-64
2022/05/04 13:21:56;;;;;;;11.93;5.43;;;;;;;;;;5052869;28;20498;-65
2022/05/04 13:24:22;;;;;;;6.30;5.70;;;;;;;;;;5056706;28;20507;-64
2022/05/04 13:26:48;;;;;;;7.90;5.50;;;;;;;;;;5056616;28;20899;-66
2022/05/04 13:29:14;;;;;;;5.57;5.00;;;;;;;;;;5056664;28;20534;-66
2022/05/04 13:31:41;;;;;;;7.33;4.60;;;;;;;;;;5056534;28;20555;-63
2022/05/04 13:34:07;;;;;;;5.50;5.00;;;;;;;;;;5056576;28;20499;-67
2022/05/04 13:36:33;;;;;;;6.53;5.80;;;;;;;;;;5056535;28;20448;-63
2022/05/04 13:38:59;;;;;;;7.40;5.30;;;;;;;;;;5056580;28;20826;-63
2022/05/04 13:41:25;;;;;;;5.93;5.23;;;;;;;;;;5056422;28;20919;-65
2022/05/04 13:43:52;;;;;;;6.53;5.93;;;;;;;;;;5056441;28;20435;-64
2022/05/04 13:46:18;;;;;;;5.13;4.73;;;;;;;;;;5056259;28;20409;-65
2022/05/04 13:48:44;;;;;;;5.03;4.63;;;;;;;;;;5056425;28;20424;-64
2022/05/04 13:53:56;;;;;;;5.57;5.07;;;;;;;;;;5056566;28;20800;-64
2022/05/04 13:56:22;;;;;;;4.77;4.37;;;;;;;;;;5056116;28;20389;-66
2022/05/04 13:58:48;;;;;;;5.00;4.23;;;;;;;;;;5056247;28;20464;-64
2022/05/04 14:01:14;;;;;;;6.27;4.70;;;;;;;;;;5056231;28;20489;-66
2022/05/04 14:03:40;;;;;;;4.90;4.43;;;;;;;;;;5056059;28;20428;-71
2022/05/04 14:06:06;;;;;;;4.97;4.50;;;;;;;;;;5055731;28;20445;-63
2022/05/04 14:08:32;;;;;;;8.17;5.10;;;;;;;;;;5056001;28;20475;-65
2022/05/04 14:10:59;;;;;;;4.80;4.40;;;;;;;;;;5055814;28;20509;-64
2022/05/04 14:13:27;;;;;;;8.93;4.73;;;;;;;;;;5056043;28;20885;-63
2022/05/04 14:15:58;;;;;;;4.80;4.50;;;;;;;;;;5055739;28;20426;-65
2022/05/04 14:18:25;;;;;;;5.10;4.40;;;;;;;;;;5055743;28;20428;-66
2022/05/04 14:20:51;;;;;;;7.93;4.13;;;;;;;;;;5055724;28;20946;-63
2022/05/04 14:23:18;;;;;;;6.20;4.40;;;;;;;;;;5037802;28;20418;-64
2022/05/04 14:25:44;;;;;;;4.47;4.07;;;;;;;;;;5055578;28;20410;-63
2022/05/04 14:28:10;;;;;;;4.57;4.17;;;;;;;;;;5055499;28;20422;-65
2022/05/04 14:30:37;;;;;;;7.27;4.10;;;;;;;;;;5055479;28;20464;-63
2022/05/04 14:33:03;;;;;;;4.57;4.17;;;;;;;;;;5037237;28;20432;-63
2022/05/04 14:35:29;;;;;;;4.53;3.97;;;;;;;;;;5055532;28;20401;-64
2022/05/04 14:37:55;;;;;;;4.30;4.00;;;;;;;;;;5055441;28;20405;-65
2022/05/04 14:40:23;;;;;;;4.40;4.00;;;;;;;;;;5055345;28;20497;-64
2022/05/04 14:42:51;;;;;;;4.37;3.60;;;;;;;;;;5055367;28;20885;-63
2022/05/04 14:45:17;;;;;;;4.20;4.00;;;;;;;;;;5055293;28;20535;-63
2022/05/04 14:47:43;;;;;;;4.80;3.67;;;;;;;;;;5055184;28;20776;-65
2022/05/04 14:50:09;;;;;;;5.87;4.43;;;;;;;;;;5054975;28;20413;-64
2022/05/04 14:52:35;;;;;;;5.13;3.53;;;;;;;;;;5055222;28;20513;-66
2022/05/04 14:55:01;;;;;;;5.00;4.10;;;;;;;;;;5055078;28;20717;-63
2022/05/04 14:57:27;;;;;;;4.00;3.70;;;;;;;;;;5055119;28;20406;-65
2022/05/04 14:59:53;;;;;;;4.40;4.00;;;;;;;;;;5054961;28;20785;-64
2022/05/04 15:02:19;;;;;;;4.10;3.80;;;;;;;;;;5037054;28;20418;-66
2022/05/04 15:05:05;;;;;;;3.50;3.30;;;;;;;;;;5054851;28;20463;-70
2022/05/04 15:07:32;;;;;;;4.20;3.90;;;;;;;;;;5054769;28;20464;-63
2022/05/04 15:09:58;;;;;;;4.17;3.80;;;;;;;;;;5054891;28;20390;-62
2022/05/04 15:12:24;;;;;;;4.43;4.07;;;;;;;;;;5054648;28;20501;-63
2022/05/04 15:14:50;;;;;;;5.27;4.27;;;;;;;;;;5054716;28;20433;-62
2022/05/04 15:17:17;;;;;;;4.50;4.20;;;;;;;;;;5054605;28;20795;-63
2022/05/04 15:19:43;;;;;;;4.97;4.57;;;;;;;;;;5054652;28;20406;-63